sensor_id;sensor_type;location;lat;lon;timestamp;P1;durP1;ratioP1;P2;durP2;ratioP2
21567;SDS011;10944;42.590;12.630;2022-09-09T00:03:50;14.40;;;5.78;;
21567;SDS011;10944;42.590;12.630;2022-09-09T00:06:30;12.88;;;4.50;;
21567;SDS011;10944;42.590;12.630;2022-09-09T00:09:01;14.32;;;5.00;;
21567;SDS011;10944;42.590;12.630;2022-09-09T00:11:47;34.20;;;7.07;;
21567;SDS011;10944;42.590;12.630;2022-09-09T00:17:09;11.02;;;4.40;;
21567;SDS011;10944;42.590;12.630;2022-09-09T00:19:47;13.70;;;5.50;;
21567;SDS011;10944;42.590;12.630;2022-09-09T00:22:28;10.23;;;5.57;;
21567;SDS011;10944;42.590;12.630;2022-09-09T00:25:08;18.10;;;7.50;;
21567;SDS011;10944;42.590;12.630;2022-09-09T00:27:40;20.30;;;7.70;;
21567;SDS011;10944;42.590;12.630;2022-09-09T00:32:54;12.60;;;6.07;;
21567;SDS011;10944;42.590;12.630;2022-09-09T00:35:35;11.13;;;4.55;;
21567;SDS011;10944;42.590;12.630;2022-09-09T00:38:12;9.23;;;5.00;;
21567;SDS011;10944;42.590;12.630;2022-09-09T00:43:36;12.75;;;6.22;;
21567;SDS011;10944;42.590;12.630;2022-09-09T00:48:51;11.43;;;4.50;;
21567;SDS011;10944;42.590;12.630;2022-09-09T00:56:21;9.73;;;4.75;;
21567;SDS011;10944;42.590;12.630;2022-09-09T00:59:01;8.27;;;4.82;;
21567;SDS011;10944;42.590;12.630;2022-09-09T01:01:35;8.77;;;4.20;;
21567;SDS011;10944;42.590;12.630;2022-09-09T01:04:01;11.23;;;4.70;;
21567;SDS011;10944;42.590;12.630;2022-09-09T01:06:36;9.32;;;3.50;;
21567;SDS011;10944;42.590;12.630;2022-09-09T01:11:57;7.57;;;3.30;;
21567;SDS011;10944;42.590;12.630;2022-09-09T01:14:35;8.10;;;3.63;;
21567;SDS011;10944;42.590;12.630;2022-09-09T01:17:28;7.25;;;3.30;;
21567;SDS011;10944;42.590;12.630;2022-09-09T01:28:04;7.03;;;3.70;;
21567;SDS011;10944;42.590;12.630;2022-09-09T01:30:37;10.68;;;3.00;;
21567;SDS011;10944;42.590;12.630;2022-09-09T01:33:04;5.07;;;2.75;;
21567;SDS011;10944;42.590;12.630;2022-09-09T01:37:58;4.85;;;2.55;;
21567;SDS011;10944;42.590;12.630;2022-09-09T01:40:25;9.50;;;3.08;;
21567;SDS011;10944;42.590;12.630;2022-09-09T01:42:51;6.63;;;2.80;;
21567;SDS011;10944;42.590;12.630;2022-09-09T01:45:18;5.07;;;2.80;;
21567;SDS011;10944;42.590;12.630;2022-09-09T01:47:44;4.70;;;1.90;;
21567;SDS011;10944;42.590;12.630;2022-09-09T01:50:11;10.55;;;2.17;;
21567;SDS011;10944;42.590;12.630;2022-09-09T01:52:40;4.55;;;2.03;;
21567;SDS011;10944;42.590;12.630;2022-09-09T01:55:07;3.95;;;2.15;;
21567;SDS011;10944;42.590;12.630;2022-09-09T01:57:39;5.95;;;2.53;;
21567;SDS011;10944;42.590;12.630;2022-09-09T02:00:25;5.20;;;2.45;;
21567;SDS011;10944;42.590;12.630;2022-09-09T02:05:40;10.63;;;2.50;;
21567;SDS011;10944;42.590;12.630;2022-09-09T02:08:17;6.45;;;2.42;;
21567;SDS011;10944;42.590;12.630;2022-09-09T02:13:43;7.82;;;2.28;;
21567;SDS011;10944;42.590;12.630;2022-09-09T02:18:53;4.53;;;2.05;;
21567;SDS011;10944;42.590;12.630;2022-09-09T02:21:31;3.83;;;2.13;;
21567;SDS011;10944;42.590;12.630;2022-09-09T02:24:00;4.45;;;1.80;;
21567;SDS011;10944;42.590;12.630;2022-09-09T02:26:29;3.13;;;1.50;;
21567;SDS011;10944;42.590;12.630;2022-09-09T02:29:01;3.97;;;1.40;;
21567;SDS011;10944;42.590;12.630;2022-09-09T02:31:30;2.47;;;1.38;;
21567;SDS011;10944;42.590;12.630;2022-09-09T02:34:00;2.25;;;1.30;;
21567;SDS011;10944;42.590;12.630;2022-09-09T02:36:29;2.70;;;1.27;;
21567;SDS011;10944;42.590;12.630;2022-09-09T02:38:58;3.10;;;1.40;;
21567;SDS011;10944;42.590;12.630;2022-09-09T02:41:32;5.05;;;1.33;;
21567;SDS011;10944;42.590;12.630;2022-09-09T02:44:00;2.45;;;1.15;;
21567;SDS011;10944;42.590;12.630;2022-09-09T02:49:03;3.97;;;1.20;;
21567;SDS011;10944;42.590;12.630;2022-09-09T02:56:56;2.60;;;1.13;;
21567;SDS011;10944;42.590;12.630;2022-09-09T02:59:36;5.05;;;1.30;;
21567;SDS011;10944;42.590;12.630;2022-09-09T03:02:03;2.75;;;0.93;;
21567;SDS011;10944;42.590;12.630;2022-09-09T03:04:30;2.65;;;1.10;;
21567;SDS011;10944;42.590;12.630;2022-09-09T03:06:56;2.40;;;1.10;;
21567;SDS011;10944;42.590;12.630;2022-09-09T03:09:23;3.75;;;0.90;;
21567;SDS011;10944;42.590;12.630;2022-09-09T03:11:51;2.25;;;1.00;;
21567;SDS011;10944;42.590;12.630;2022-09-09T03:14:17;4.63;;;1.20;;
21567;SDS011;10944;42.590;12.630;2022-09-09T03:16:46;2.65;;;0.73;;
21567;SDS011;10944;42.590;12.630;2022-09-09T03:19:12;2.55;;;1.00;;
21567;SDS011;10944;42.590;12.630;2022-09-09T03:21:38;2.38;;;1.00;;
21567;SDS011;10944;42.590;12.630;2022-09-09T03:24:04;5.25;;;1.02;;
21567;SDS011;10944;42.590;12.630;2022-09-09T03:26:30;4.07;;;1.00;;
21567;SDS011;10944;42.590;12.630;2022-09-09T03:28:56;2.65;;;1.00;;
21567;SDS011;10944;42.590;12.630;2022-09-09T03:31:22;4.00;;;1.63;;
21567;SDS011;10944;42.590;12.630;2022-09-09T03:33:48;3.08;;;1.00;;
21567;SDS011;10944;42.590;12.630;2022-09-09T03:36:14;3.33;;;1.00;;
21567;SDS011;10944;42.590;12.630;2022-09-09T03:38:40;2.08;;;0.80;;
21567;SDS011;10944;42.590;12.630;2022-09-09T03:41:06;5.70;;;1.20;;
21567;SDS011;10944;42.590;12.630;2022-09-09T03:43:32;2.65;;;1.10;;
21567;SDS011;10944;42.590;12.630;2022-09-09T03:45:58;3.03;;;1.20;;
21567;SDS011;10944;42.590;12.630;2022-09-09T03:48:25;4.18;;;1.20;;
21567;SDS011;10944;42.590;12.630;2022-09-09T03:50:53;2.67;;;1.05;;
21567;SDS011;10944;42.590;12.630;2022-09-09T03:53:21;4.63;;;1.20;;
21567;SDS011;10944;42.590;12.630;2022-09-09T03:55:49;3.65;;;1.27;;
21567;SDS011;10944;42.590;12.630;2022-09-09T03:58:20;3.97;;;1.70;;
21567;SDS011;10944;42.590;12.630;2022-09-09T04:01:02;3.58;;;1.10;;
21567;SDS011;10944;42.590;12.630;2022-09-09T04:03:30;3.47;;;1.20;;
21567;SDS011;10944;42.590;12.630;2022-09-09T04:05:56;2.85;;;1.10;;
21567;SDS011;10944;42.590;12.630;2022-09-09T04:08:24;3.45;;;1.17;;
21567;SDS011;10944;42.590;12.630;2022-09-09T04:10:51;3.25;;;1.40;;
21567;SDS011;10944;42.590;12.630;2022-09-09T04:13:17;3.60;;;1.13;;
21567;SDS011;10944;42.590;12.630;2022-09-09T04:15:44;2.92;;;1.10;;
21567;SDS011;10944;42.590;12.630;2022-09-09T04:18:17;4.35;;;1.17;;
21567;SDS011;10944;42.590;12.630;2022-09-09T04:20:45;3.70;;;1.17;;
21567;SDS011;10944;42.590;12.630;2022-09-09T04:23:16;3.75;;;1.08;;
21567;SDS011;10944;42.590;12.630;2022-09-09T04:25:47;4.65;;;1.30;;
21567;SDS011;10944;42.590;12.630;2022-09-09T04:28:15;3.60;;;1.00;;
21567;SDS011;10944;42.590;12.630;2022-09-09T04:30:42;6.88;;;1.20;;
21567;SDS011;10944;42.590;12.630;2022-09-09T04:33:08;6.45;;;1.17;;
21567;SDS011;10944;42.590;12.630;2022-09-09T04:35:38;3.20;;;1.20;;
21567;SDS011;10944;42.590;12.630;2022-09-09T04:38:04;1.67;;;1.10;;
21567;SDS011;10944;42.590;12.630;2022-09-09T04:40:32;3.65;;;1.20;;
21567;SDS011;10944;42.590;12.630;2022-09-09T04:42:58;3.55;;;1.40;;
21567;SDS011;10944;42.590;12.630;2022-09-09T04:45:31;3.70;;;1.30;;
21567;SDS011;10944;42.590;12.630;2022-09-09T04:47:57;2.78;;;1.30;;
21567;SDS011;10944;42.590;12.630;2022-09-09T04:50:23;4.90;;;1.50;;
21567;SDS011;10944;42.590;12.630;2022-09-09T04:52:48;4.80;;;1.73;;
21567;SDS011;10944;42.590;12.630;2022-09-09T04:55:14;4.97;;;1.85;;
21567;SDS011;10944;42.590;12.630;2022-09-09T04:57:40;5.00;;;1.60;;
21567;SDS011;10944;42.590;12.630;2022-09-09T05:00:06;4.60;;;1.63;;
21567;SDS011;10944;42.590;12.630;2022-09-09T05:02:36;4.70;;;1.55;;
21567;SDS011;10944;42.590;12.630;2022-09-09T05:05:03;3.67;;;1.50;;
21567;SDS011;10944;42.590;12.630;2022-09-09T05:07:30;4.78;;;1.55;;
21567;SDS011;10944;42.590;12.630;2022-09-09T05:09:56;3.08;;;1.42;;
21567;SDS011;10944;42.590;12.630;2022-09-09T05:12:22;3.88;;;1.58;;
21567;SDS011;10944;42.590;12.630;2022-09-09T05:14:50;5.15;;;1.80;;
21567;SDS011;10944;42.590;12.630;2022-09-09T05:17:16;9.20;;;2.00;;
21567;SDS011;10944;42.590;12.630;2022-09-09T05:19:42;6.07;;;2.00;;
21567;SDS011;10944;42.590;12.630;2022-09-09T05:22:09;5.13;;;2.03;;
21567;SDS011;10944;42.590;12.630;2022-09-09T05:24:36;7.47;;;2.35;;
21567;SDS011;10944;42.590;12.630;2022-09-09T05:27:03;6.00;;;2.15;;
21567;SDS011;10944;42.590;12.630;2022-09-09T05:29:30;5.93;;;2.03;;
21567;SDS011;10944;42.590;12.630;2022-09-09T05:31:58;9.43;;;2.28;;
21567;SDS011;10944;42.590;12.630;2022-09-09T05:34:24;8.73;;;1.83;;
21567;SDS011;10944;42.590;12.630;2022-09-09T05:36:50;4.47;;;1.80;;
21567;SDS011;10944;42.590;12.630;2022-09-09T05:39:17;7.97;;;2.13;;
21567;SDS011;10944;42.590;12.630;2022-09-09T05:41:43;5.63;;;1.70;;
21567;SDS011;10944;42.590;12.630;2022-09-09T05:44:09;8.07;;;2.10;;
21567;SDS011;10944;42.590;12.630;2022-09-09T05:46:34;5.95;;;1.70;;
21567;SDS011;10944;42.590;12.630;2022-09-09T05:49:01;5.57;;;1.80;;
21567;SDS011;10944;42.590;12.630;2022-09-09T05:51:28;4.35;;;1.83;;
21567;SDS011;10944;42.590;12.630;2022-09-09T05:53:57;5.13;;;1.55;;
21567;SDS011;10944;42.590;12.630;2022-09-09T05:56:27;5.70;;;1.92;;
21567;SDS011;10944;42.590;12.630;2022-09-09T05:58:54;5.35;;;1.65;;
21567;SDS011;10944;42.590;12.630;2022-09-09T06:01:21;6.50;;;2.00;;
21567;SDS011;10944;42.590;12.630;2022-09-09T06:03:55;6.05;;;1.50;;
21567;SDS011;10944;42.590;12.630;2022-09-09T06:06:22;6.63;;;1.73;;
21567;SDS011;10944;42.590;12.630;2022-09-09T06:08:51;4.57;;;1.63;;
21567;SDS011;10944;42.590;12.630;2022-09-09T06:11:21;8.60;;;1.90;;
21567;SDS011;10944;42.590;12.630;2022-09-09T06:13:48;5.38;;;2.13;;
21567;SDS011;10944;42.590;12.630;2022-09-09T06:16:18;5.60;;;1.83;;
21567;SDS011;10944;42.590;12.630;2022-09-09T06:18:48;5.88;;;1.67;;
21567;SDS011;10944;42.590;12.630;2022-09-09T06:23:44;4.03;;;1.73;;
21567;SDS011;10944;42.590;12.630;2022-09-09T06:26:18;5.68;;;1.50;;
21567;SDS011;10944;42.590;12.630;2022-09-09T06:28:46;4.65;;;1.25;;
21567;SDS011;10944;42.590;12.630;2022-09-09T06:31:13;4.07;;;1.60;;
21567;SDS011;10944;42.590;12.630;2022-09-09T06:33:42;4.13;;;1.40;;
21567;SDS011;10944;42.590;12.630;2022-09-09T06:36:13;3.83;;;1.40;;
21567;SDS011;10944;42.590;12.630;2022-09-09T06:38:41;7.13;;;1.63;;
21567;SDS011;10944;42.590;12.630;2022-09-09T06:41:08;3.58;;;1.35;;
21567;SDS011;10944;42.590;12.630;2022-09-09T06:43:35;6.13;;;1.73;;
21567;SDS011;10944;42.590;12.630;2022-09-09T06:46:20;5.25;;;1.48;;
21567;SDS011;10944;42.590;12.630;2022-09-09T06:48:47;5.65;;;1.92;;
21567;SDS011;10944;42.590;12.630;2022-09-09T06:53:40;5.95;;;1.70;;
21567;SDS011;10944;42.590;12.630;2022-09-09T06:58:39;5.90;;;1.50;;
21567;SDS011;10944;42.590;12.630;2022-09-09T07:01:09;4.85;;;1.58;;
21567;SDS011;10944;42.590;12.630;2022-09-09T07:03:39;4.13;;;1.52;;
21567;SDS011;10944;42.590;12.630;2022-09-09T07:06:06;5.70;;;2.00;;
21567;SDS011;10944;42.590;12.630;2022-09-09T07:08:34;3.83;;;1.70;;
21567;SDS011;10944;42.590;12.630;2022-09-09T07:11:03;6.63;;;1.65;;
21567;SDS011;10944;42.590;12.630;2022-09-09T07:13:30;5.60;;;1.50;;
21567;SDS011;10944;42.590;12.630;2022-09-09T07:16:03;5.45;;;1.50;;
21567;SDS011;10944;42.590;12.630;2022-09-09T07:18:33;6.05;;;1.52;;
21567;SDS011;10944;42.590;12.630;2022-09-09T07:21:00;4.28;;;1.40;;
21567;SDS011;10944;42.590;12.630;2022-09-09T07:23:27;4.38;;;1.40;;
21567;SDS011;10944;42.590;12.630;2022-09-09T07:25:53;6.00;;;1.52;;
21567;SDS011;10944;42.590;12.630;2022-09-09T07:28:20;7.25;;;1.75;;
21567;SDS011;10944;42.590;12.630;2022-09-09T07:30:53;4.07;;;1.85;;
21567;SDS011;10944;42.590;12.630;2022-09-09T07:33:23;6.32;;;1.55;;
21567;SDS011;10944;42.590;12.630;2022-09-09T07:35:50;3.75;;;1.30;;
21567;SDS011;10944;42.590;12.630;2022-09-09T07:38:16;4.93;;;1.80;;
21567;SDS011;10944;42.590;12.630;2022-09-09T07:40:42;5.57;;;1.58;;
21567;SDS011;10944;42.590;12.630;2022-09-09T07:43:08;5.18;;;1.50;;
21567;SDS011;10944;42.590;12.630;2022-09-09T07:45:34;5.43;;;1.55;;
21567;SDS011;10944;42.590;12.630;2022-09-09T07:48:01;4.80;;;1.83;;
21567;SDS011;10944;42.590;12.630;2022-09-09T07:50:27;8.23;;;1.80;;
21567;SDS011;10944;42.590;12.630;2022-09-09T07:52:53;4.65;;;1.85;;
21567;SDS011;10944;42.590;12.630;2022-09-09T07:55:22;5.72;;;1.52;;
21567;SDS011;10944;42.590;12.630;2022-09-09T07:57:52;4.53;;;1.65;;
21567;SDS011;10944;42.590;12.630;2022-09-09T08:00:18;6.82;;;1.70;;
21567;SDS011;10944;42.590;12.630;2022-09-09T08:02:47;5.07;;;1.75;;
21567;SDS011;10944;42.590;12.630;2022-09-09T08:05:13;5.22;;;1.70;;
21567;SDS011;10944;42.590;12.630;2022-09-09T08:07:40;4.80;;;1.67;;
21567;SDS011;10944;42.590;12.630;2022-09-09T08:10:05;5.13;;;1.70;;
21567;SDS011;10944;42.590;12.630;2022-09-09T08:12:32;5.43;;;1.65;;
21567;SDS011;10944;42.590;12.630;2022-09-09T08:14:57;5.80;;;1.75;;
21567;SDS011;10944;42.590;12.630;2022-09-09T08:17:23;6.75;;;1.90;;
21567;SDS011;10944;42.590;12.630;2022-09-09T08:19:49;4.85;;;2.08;;
21567;SDS011;10944;42.590;12.630;2022-09-09T08:22:15;4.70;;;1.70;;
21567;SDS011;10944;42.590;12.630;2022-09-09T08:24:40;9.25;;;2.22;;
21567;SDS011;10944;42.590;12.630;2022-09-09T08:27:06;5.78;;;1.77;;
21567;SDS011;10944;42.590;12.630;2022-09-09T08:29:32;7.57;;;2.08;;
21567;SDS011;10944;42.590;12.630;2022-09-09T08:31:58;9.48;;;2.30;;
21567;SDS011;10944;42.590;12.630;2022-09-09T08:34:25;7.15;;;2.17;;
21567;SDS011;10944;42.590;12.630;2022-09-09T08:36:52;8.48;;;2.30;;
21567;SDS011;10944;42.590;12.630;2022-09-09T08:39:19;8.10;;;2.35;;
21567;SDS011;10944;42.590;12.630;2022-09-09T08:52:57;8.50;;;2.58;;
21567;SDS011;10944;42.590;12.630;2022-09-09T08:57:56;7.22;;;2.60;;
21567;SDS011;10944;42.590;12.630;2022-09-09T09:00:28;9.95;;;3.30;;
21567;SDS011;10944;42.590;12.630;2022-09-09T09:08:48;9.98;;;3.10;;
21567;SDS011;10944;42.590;12.630;2022-09-09T09:11:22;7.00;;;2.90;;
21567;SDS011;10944;42.590;12.630;2022-09-09T09:13:58;9.27;;;3.20;;
21567;SDS011;10944;42.590;12.630;2022-09-09T09:16:38;9.82;;;3.80;;
21567;SDS011;10944;42.590;12.630;2022-09-09T09:19:14;12.07;;;4.10;;
21567;SDS011;10944;42.590;12.630;2022-09-09T09:21:43;9.05;;;3.85;;
21567;SDS011;10944;42.590;12.630;2022-09-09T09:24:55;14.30;;;4.30;;
21567;SDS011;10944;42.590;12.630;2022-09-09T09:27:11;12.40;;;4.13;;
21567;SDS011;10944;42.590;12.630;2022-09-09T09:29:43;15.05;;;4.22;;
21567;SDS011;10944;42.590;12.630;2022-09-09T09:32:14;9.00;;;3.70;;
21567;SDS011;10944;42.590;12.630;2022-09-09T09:34:48;14.27;;;4.07;;
21567;SDS011;10944;42.590;12.630;2022-09-09T09:37:17;18.00;;;4.68;;
21567;SDS011;10944;42.590;12.630;2022-09-09T09:40:13;14.35;;;4.38;;
21567;SDS011;10944;42.590;12.630;2022-09-09T09:42:48;14.15;;;4.00;;
21567;SDS011;10944;42.590;12.630;2022-09-09T09:48:08;12.82;;;4.00;;
21567;SDS011;10944;42.590;12.630;2022-09-09T09:50:45;12.35;;;3.88;;
21567;SDS011;10944;42.590;12.630;2022-09-09T09:55:49;13.90;;;4.10;;
21567;SDS011;10944;42.590;12.630;2022-09-09T09:58:30;13.45;;;4.50;;
21567;SDS011;10944;42.590;12.630;2022-09-09T10:00:59;14.45;;;4.10;;
21567;SDS011;10944;42.590;12.630;2022-09-09T10:05:53;11.80;;;4.10;;
21567;SDS011;10944;42.590;12.630;2022-09-09T10:08:21;11.15;;;3.83;;
21567;SDS011;10944;42.590;12.630;2022-09-09T10:19:35;12.25;;;3.92;;
21567;SDS011;10944;42.590;12.630;2022-09-09T10:30:19;10.45;;;3.60;;
21567;SDS011;10944;42.590;12.630;2022-09-09T10:32:49;12.85;;;4.25;;
21567;SDS011;10944;42.590;12.630;2022-09-09T10:35:38;11.57;;;3.90;;
21567;SDS011;10944;42.590;12.630;2022-09-09T10:38:15;9.90;;;3.53;;
21567;SDS011;10944;42.590;12.630;2022-09-09T10:46:29;13.48;;;4.43;;
21567;SDS011;10944;42.590;12.630;2022-09-09T10:52:31;13.95;;;3.85;;
21567;SDS011;10944;42.590;12.630;2022-09-09T10:55:00;11.05;;;3.65;;
21567;SDS011;10944;42.590;12.630;2022-09-09T10:58:09;13.70;;;3.67;;
21567;SDS011;10944;42.590;12.630;2022-09-09T11:03:20;14.85;;;3.72;;
21567;SDS011;10944;42.590;12.630;2022-09-09T11:06:19;12.93;;;3.60;;
21567;SDS011;10944;42.590;12.630;2022-09-09T11:08:46;9.05;;;3.10;;
21567;SDS011;10944;42.590;12.630;2022-09-09T11:11:29;12.55;;;3.90;;
21567;SDS011;10944;42.590;12.630;2022-09-09T11:14:15;14.45;;;3.97;;
21567;SDS011;10944;42.590;12.630;2022-09-09T11:16:52;9.57;;;3.20;;
21567;SDS011;10944;42.590;12.630;2022-09-09T11:21:59;11.02;;;3.35;;
21567;SDS011;10944;42.590;12.630;2022-09-09T11:24:53;11.88;;;2.60;;
21567;SDS011;10944;42.590;12.630;2022-09-09T11:41:04;12.10;;;2.35;;
21567;SDS011;10944;42.590;12.630;2022-09-09T11:43:44;6.32;;;2.10;;
21567;SDS011;10944;42.590;12.630;2022-09-09T11:46:12;7.28;;;2.17;;
21567;SDS011;10944;42.590;12.630;2022-09-09T11:48:44;8.77;;;2.13;;
21567;SDS011;10944;42.590;12.630;2022-09-09T11:53:58;8.32;;;2.38;;
21567;SDS011;10944;42.590;12.630;2022-09-09T11:56:43;5.70;;;2.47;;
21567;SDS011;10944;42.590;12.630;2022-09-09T11:59:23;8.38;;;2.65;;
21567;SDS011;10944;42.590;12.630;2022-09-09T12:02:00;9.68;;;2.70;;
21567;SDS011;10944;42.590;12.630;2022-09-09T12:07:55;8.63;;;2.38;;
21567;SDS011;10944;42.590;12.630;2022-09-09T12:10:26;9.55;;;2.50;;
21567;SDS011;10944;42.590;12.630;2022-09-09T12:13:19;10.35;;;3.00;;
21567;SDS011;10944;42.590;12.630;2022-09-09T12:15:57;9.75;;;2.30;;
21567;SDS011;10944;42.590;12.630;2022-09-09T12:20:52;8.45;;;2.30;;
21567;SDS011;10944;42.590;12.630;2022-09-09T12:26:22;8.15;;;2.33;;
21567;SDS011;10944;42.590;12.630;2022-09-09T12:29:52;8.50;;;2.25;;
21567;SDS011;10944;42.590;12.630;2022-09-09T12:36:58;5.32;;;1.40;;
21567;SDS011;10944;42.590;12.630;2022-09-09T12:39:30;6.20;;;0.90;;
21567;SDS011;10944;42.590;12.630;2022-09-09T12:42:02;6.60;;;1.40;;
21567;SDS011;10944;42.590;12.630;2022-09-09T12:44:29;5.25;;;1.38;;
21567;SDS011;10944;42.590;12.630;2022-09-09T12:46:58;5.18;;;0.98;;
21567;SDS011;10944;42.590;12.630;2022-09-09T12:49:31;7.15;;;1.20;;
21567;SDS011;10944;42.590;12.630;2022-09-09T12:52:46;4.13;;;0.75;;
21567;SDS011;10944;42.590;12.630;2022-09-09T12:54:47;5.88;;;0.95;;
21567;SDS011;10944;42.590;12.630;2022-09-09T12:57:13;4.43;;;0.90;;
21567;SDS011;10944;42.590;12.630;2022-09-09T12:59:41;4.57;;;0.90;;
21567;SDS011;10944;42.590;12.630;2022-09-09T13:02:23;4.60;;;0.90;;
21567;SDS011;10944;42.590;12.630;2022-09-09T13:04:51;5.65;;;1.10;;
21567;SDS011;10944;42.590;12.630;2022-09-09T13:07:18;5.13;;;0.80;;
21567;SDS011;10944;42.590;12.630;2022-09-09T13:09:47;4.32;;;0.90;;
21567;SDS011;10944;42.590;12.630;2022-09-09T13:12:18;3.33;;;0.70;;
21567;SDS011;10944;42.590;12.630;2022-09-09T13:14:52;2.67;;;0.70;;
21567;SDS011;10944;42.590;12.630;2022-09-09T13:17:22;4.75;;;0.82;;
21567;SDS011;10944;42.590;12.630;2022-09-09T13:19:50;4.13;;;0.75;;
21567;SDS011;10944;42.590;12.630;2022-09-09T13:25:05;5.57;;;0.70;;
21567;SDS011;10944;42.590;12.630;2022-09-09T13:27:51;3.83;;;0.63;;
21567;SDS011;10944;42.590;12.630;2022-09-09T13:36:03;4.55;;;0.77;;
21567;SDS011;10944;42.590;12.630;2022-09-09T13:38:30;5.22;;;0.73;;
21567;SDS011;10944;42.590;12.630;2022-09-09T13:41:03;3.45;;;0.60;;
21567;SDS011;10944;42.590;12.630;2022-09-09T13:43:34;2.38;;;0.57;;
21567;SDS011;10944;42.590;12.630;2022-09-09T13:46:21;2.63;;;0.60;;
21567;SDS011;10944;42.590;12.630;2022-09-09T13:48:58;6.65;;;0.85;;
21567;SDS011;10944;42.590;12.630;2022-09-09T13:51:36;2.45;;;0.70;;
21567;SDS011;10944;42.590;12.630;2022-09-09T13:54:11;3.20;;;0.70;;
21567;SDS011;10944;42.590;12.630;2022-09-09T13:56:39;4.63;;;0.80;;
21567;SDS011;10944;42.590;12.630;2022-09-09T13:59:06;4.55;;;0.70;;
21567;SDS011;10944;42.590;12.630;2022-09-09T14:01:39;3.08;;;0.50;;
21567;SDS011;10944;42.590;12.630;2022-09-09T14:04:05;3.58;;;0.70;;
21567;SDS011;10944;42.590;12.630;2022-09-09T14:06:32;3.00;;;0.80;;
21567;SDS011;10944;42.590;12.630;2022-09-09T14:09:00;4.50;;;0.82;;
21567;SDS011;10944;42.590;12.630;2022-09-09T14:11:25;3.42;;;0.70;;
21567;SDS011;10944;42.590;12.630;2022-09-09T14:13:51;3.63;;;0.65;;
21567;SDS011;10944;42.590;12.630;2022-09-09T14:16:17;2.97;;;0.80;;
21567;SDS011;10944;42.590;12.630;2022-09-09T14:18:43;3.28;;;0.70;;
21567;SDS011;10944;42.590;12.630;2022-09-09T14:21:10;2.85;;;0.80;;
21567;SDS011;10944;42.590;12.630;2022-09-09T14:23:37;4.45;;;0.70;;
21567;SDS011;10944;42.590;12.630;2022-09-09T14:26:03;4.20;;;0.80;;
21567;SDS011;10944;42.590;12.630;2022-09-09T14:28:32;5.13;;;0.68;;
21567;SDS011;10944;42.590;12.630;2022-09-09T14:31:00;4.18;;;0.80;;
21567;SDS011;10944;42.590;12.630;2022-09-09T14:33:26;2.53;;;0.80;;
21567;SDS011;10944;42.590;12.630;2022-09-09T14:35:57;2.97;;;0.70;;
21567;SDS011;10944;42.590;12.630;2022-09-09T14:38:31;3.25;;;0.73;;
21567;SDS011;10944;42.590;12.630;2022-09-09T14:40:59;1.65;;;0.70;;
21567;SDS011;10944;42.590;12.630;2022-09-09T14:43:27;5.80;;;1.08;;
21567;SDS011;10944;42.590;12.630;2022-09-09T14:45:53;6.20;;;1.25;;
21567;SDS011;10944;42.590;12.630;2022-09-09T14:48:18;5.10;;;0.95;;
21567;SDS011;10944;42.590;12.630;2022-09-09T14:50:44;4.82;;;1.08;;
21567;SDS011;10944;42.590;12.630;2022-09-09T14:53:10;5.43;;;0.88;;
21567;SDS011;10944;42.590;12.630;2022-09-09T14:55:36;3.13;;;0.77;;
21567;SDS011;10944;42.590;12.630;2022-09-09T14:58:02;4.88;;;0.95;;
21567;SDS011;10944;42.590;12.630;2022-09-09T15:00:28;2.35;;;0.70;;
21567;SDS011;10944;42.590;12.630;2022-09-09T15:02:54;7.65;;;1.10;;
21567;SDS011;10944;42.590;12.630;2022-09-09T15:05:21;5.00;;;0.93;;
21567;SDS011;10944;42.590;12.630;2022-09-09T15:07:47;4.63;;;0.90;;
21567;SDS011;10944;42.590;12.630;2022-09-09T15:10:16;4.90;;;1.00;;
21567;SDS011;10944;42.590;12.630;2022-09-09T15:12:42;4.68;;;1.00;;
21567;SDS011;10944;42.590;12.630;2022-09-09T15:15:08;2.38;;;0.80;;
21567;SDS011;10944;42.590;12.630;2022-09-09T15:17:34;3.75;;;1.02;;
21567;SDS011;10944;42.590;12.630;2022-09-09T15:20:01;4.20;;;0.85;;
21567;SDS011;10944;42.590;12.630;2022-09-09T15:22:28;3.60;;;0.93;;
21567;SDS011;10944;42.590;12.630;2022-09-09T15:24:54;8.18;;;1.20;;
21567;SDS011;10944;42.590;12.630;2022-09-09T15:27:19;7.38;;;1.20;;
21567;SDS011;10944;42.590;12.630;2022-09-09T15:29:45;4.97;;;1.27;;
21567;SDS011;10944;42.590;12.630;2022-09-09T15:32:11;4.57;;;1.10;;
21567;SDS011;10944;42.590;12.630;2022-09-09T15:34:37;7.47;;;1.42;;
21567;SDS011;10944;42.590;12.630;2022-09-09T15:37:03;6.85;;;1.20;;
21567;SDS011;10944;42.590;12.630;2022-09-09T15:39:28;4.28;;;1.10;;
21567;SDS011;10944;42.590;12.630;2022-09-09T15:41:54;5.15;;;1.45;;
21567;SDS011;10944;42.590;12.630;2022-09-09T15:44:22;3.15;;;1.10;;
21567;SDS011;10944;42.590;12.630;2022-09-09T15:46:51;4.07;;;1.20;;
21567;SDS011;10944;42.590;12.630;2022-09-09T15:49:24;6.22;;;1.60;;
21567;SDS011;10944;42.590;12.630;2022-09-09T15:51:54;5.65;;;1.73;;
21567;SDS011;10944;42.590;12.630;2022-09-09T15:54:23;5.88;;;2.17;;
21567;SDS011;10944;42.590;12.630;2022-09-09T15:56:54;4.25;;;1.50;;
21567;SDS011;10944;42.590;12.630;2022-09-09T15:59:21;4.93;;;1.52;;
21567;SDS011;10944;42.590;12.630;2022-09-09T16:01:48;5.18;;;1.35;;
21567;SDS011;10944;42.590;12.630;2022-09-09T16:04:16;3.60;;;1.30;;
21567;SDS011;10944;42.590;12.630;2022-09-09T16:06:48;4.80;;;1.27;;
21567;SDS011;10944;42.590;12.630;2022-09-09T16:09:15;6.32;;;1.23;;
21567;SDS011;10944;42.590;12.630;2022-09-09T16:11:41;5.20;;;1.30;;
21567;SDS011;10944;42.590;12.630;2022-09-09T16:14:07;4.15;;;1.10;;
21567;SDS011;10944;42.590;12.630;2022-09-09T16:16:33;4.47;;;1.10;;
21567;SDS011;10944;42.590;12.630;2022-09-09T16:19:00;7.05;;;1.20;;
21567;SDS011;10944;42.590;12.630;2022-09-09T16:21:34;7.97;;;1.75;;
21567;SDS011;10944;42.590;12.630;2022-09-09T16:24:08;5.43;;;1.30;;
21567;SDS011;10944;42.590;12.630;2022-09-09T16:26:37;5.75;;;1.40;;
21567;SDS011;10944;42.590;12.630;2022-09-09T16:29:06;3.55;;;1.05;;
21567;SDS011;10944;42.590;12.630;2022-09-09T16:31:32;9.40;;;1.20;;
21567;SDS011;10944;42.590;12.630;2022-09-09T16:33:58;5.60;;;1.27;;
21567;SDS011;10944;42.590;12.630;2022-09-09T16:36:25;6.90;;;2.08;;
21567;SDS011;10944;42.590;12.630;2022-09-09T16:38:53;5.15;;;1.25;;
21567;SDS011;10944;42.590;12.630;2022-09-09T16:41:22;7.15;;;1.13;;
21567;SDS011;10944;42.590;12.630;2022-09-09T16:43:56;6.65;;;1.08;;
21567;SDS011;10944;42.590;12.630;2022-09-09T16:46:24;5.28;;;1.52;;
21567;SDS011;10944;42.590;12.630;2022-09-09T16:48:52;6.80;;;1.38;;
21567;SDS011;10944;42.590;12.630;2022-09-09T16:51:24;5.88;;;1.10;;
21567;SDS011;10944;42.590;12.630;2022-09-09T16:53:54;7.38;;;1.40;;
21567;SDS011;10944;42.590;12.630;2022-09-09T16:56:24;5.97;;;1.10;;
21567;SDS011;10944;42.590;12.630;2022-09-09T16:58:52;4.50;;;1.00;;
21567;SDS011;10944;42.590;12.630;2022-09-09T17:01:20;6.07;;;1.17;;
21567;SDS011;10944;42.590;12.630;2022-09-09T17:03:47;3.75;;;0.90;;
21567;SDS011;10944;42.590;12.630;2022-09-09T17:06:16;5.93;;;0.93;;
21567;SDS011;10944;42.590;12.630;2022-09-09T17:08:42;8.00;;;1.70;;
21567;SDS011;10944;42.590;12.630;2022-09-09T17:11:11;6.13;;;1.17;;
21567;SDS011;10944;42.590;12.630;2022-09-09T17:13:41;4.47;;;1.20;;
21567;SDS011;10944;42.590;12.630;2022-09-09T17:16:08;8.82;;;2.45;;
21567;SDS011;10944;42.590;12.630;2022-09-09T17:18:35;7.43;;;1.23;;
21567;SDS011;10944;42.590;12.630;2022-09-09T17:21:02;6.35;;;1.30;;
21567;SDS011;10944;42.590;12.630;2022-09-09T17:23:31;5.55;;;1.27;;